createdAt,value
2023-04-25T00:00:29.073Z,360.11
2023-04-25T00:01:14.277Z,360.11
2023-04-25T00:01:59.180Z,356.12
2023-04-25T00:02:44.278Z,361.59
2023-04-25T00:03:29.481Z,353.13
2023-04-25T00:04:14.398Z,359.11
2023-04-25T00:04:59.416Z,361.11
2023-04-25T00:05:44.479Z,353.13
2023-04-25T00:06:29.315Z,349.14
2023-04-25T00:07:14.579Z,352.13
2023-04-25T00:07:59.804Z,357.61
2023-04-25T00:08:44.928Z,355.12
2023-04-25T00:09:29.540Z,350.14
2023-04-25T00:10:14.848Z,353.13
2023-04-25T00:10:59.814Z,353.13
2023-04-25T00:11:44.606Z,360.11
2023-04-25T00:12:30.001Z,362.11
2023-04-25T00:13:14.668Z,362.11
2023-04-25T00:13:59.989Z,360.11
2023-04-25T00:14:45.259Z,344.66
2023-04-25T00:15:30.158Z,350.14
2023-04-25T00:16:15.228Z,355.12
2023-04-25T00:17:01.082Z,356.12
2023-04-25T00:17:44.971Z,349.14
2023-04-25T00:18:30.936Z,356.12
2023-04-25T00:19:15.509Z,356.12
2023-04-25T00:20:00.686Z,349.14
2023-04-25T00:20:45.450Z,350.14
2023-04-25T00:21:30.216Z,366.10
2023-04-25T00:22:15.193Z,351.13
2023-04-25T00:23:00.258Z,362.11
2023-04-25T00:23:45.307Z,358.12
2023-04-25T00:24:30.568Z,357.12
2023-04-25T00:25:16.347Z,350.14
2023-04-25T00:26:00.762Z,344.66
2023-04-25T00:26:45.849Z,364.10
2023-04-25T00:27:30.794Z,363.10
2023-04-25T00:28:16.365Z,357.12
2023-04-25T00:29:00.708Z,363.10
2023-04-25T00:30:08.798Z,0.00
2023-04-25T00:30:53.704Z,0.00
2023-04-25T00:31:39.194Z,0.00
2023-04-25T00:32:23.675Z,0.00
2023-04-25T00:33:08.817Z,0.00
2023-04-25T00:33:53.902Z,0.00
2023-04-25T00:34:38.638Z,0.00
2023-04-25T00:35:24.234Z,0.00
2023-04-25T00:36:08.540Z,0.00
2023-04-25T00:36:53.866Z,340.16
2023-04-25T00:37:39.731Z,156.39
2023-04-25T00:38:24.342Z,349.14
2023-04-25T00:39:08.777Z,333.18
2023-04-25T00:39:53.753Z,345.15
2023-04-25T00:40:38.907Z,354.13
2023-04-25T00:41:24.091Z,345.66
2023-04-25T00:42:09.024Z,350.14
2023-04-25T00:42:53.691Z,182.25
2023-04-25T00:43:38.998Z,337.17
2023-04-25T00:44:23.995Z,345.66
2023-04-25T00:45:10.562Z,352.13
2023-04-25T00:45:54.675Z,343.15
2023-04-25T00:46:39.104Z,345.66
2023-04-25T00:47:24.297Z,146.64
2023-04-25T00:48:09.338Z,115.71
2023-04-25T00:48:54.390Z,331.18
2023-04-25T00:49:39.356Z,304.25
2023-04-25T00:50:24.410Z,141.85
2023-04-25T00:51:09.621Z,280.22
2023-04-25T00:51:54.632Z,125.90
2023-04-25T00:52:39.579Z,144.93
2023-04-25T00:53:24.743Z,152.48
2023-04-25T00:54:09.785Z,158.40
2023-04-25T00:54:54.879Z,144.07
2023-04-25T00:55:39.877Z,142.55
2023-04-25T00:56:25.338Z,149.55
2023-04-25T00:57:09.914Z,152.48
2023-04-25T00:57:54.860Z,76.81
2023-04-25T00:58:40.366Z,164.59
2023-04-25T00:59:25.126Z,347.14
2023-04-25T01:00:09.828Z,334.18
2023-04-25T01:00:55.652Z,347.14
2023-04-25T01:01:40.155Z,343.85
2023-04-25T01:02:25.323Z,90.70
2023-04-25T01:03:10.563Z,87.78
2023-04-25T01:03:56.144Z,333.18
2023-04-25T01:04:40.888Z,339.16
2023-04-25T01:05:25.343Z,334.18
2023-04-25T01:06:11.092Z,362.11
2023-04-25T01:06:55.947Z,361.11
2023-04-25T01:07:40.974Z,353.13
2023-04-25T01:08:25.652Z,347.65
2023-04-25T01:09:10.562Z,355.12
2023-04-25T01:09:56.389Z,349.14
2023-04-25T01:10:40.652Z,348.14
2023-04-25T01:11:25.950Z,353.62
2023-04-25T01:12:10.843Z,341.16
2023-04-25T01:12:55.989Z,169.41
2023-04-25T01:13:40.826Z,151.22
2023-04-25T01:14:26.385Z,183.82
2023-04-25T01:15:11.470Z,325.75
2023-04-25T01:15:56.215Z,190.23
2023-04-25T01:16:41.209Z,174.09
2023-04-25T01:17:26.550Z,176.90
2023-04-25T01:18:11.004Z,148.63
2023-04-25T01:18:56.552Z,338.17
2023-04-25T01:19:41.552Z,335.17
2023-04-25T01:20:26.558Z,339.16
2023-04-25T01:21:11.217Z,338.17
2023-04-25T01:21:56.635Z,345.15
2023-04-25T01:22:41.787Z,355.12
2023-04-25T01:23:26.632Z,347.65
2023-04-25T01:24:11.641Z,342.16
2023-04-25T01:24:56.490Z,345.15
2023-04-25T01:25:41.676Z,346.65
2023-04-25T01:26:26.705Z,356.12
2023-04-25T01:27:11.881Z,356.12
2023-04-25T01:27:56.817Z,354.13
2023-04-25T01:28:42.597Z,345.15
2023-04-25T01:29:27.269Z,344.15
2023-04-25T01:30:12.195Z,348.14
2023-04-25T01:30:57.177Z,351.13
2023-04-25T01:31:42.314Z,346.15
2023-04-25T01:32:27.844Z,347.65
2023-04-25T01:33:12.307Z,356.12
2023-04-25T01:33:56.659Z,346.15
2023-04-25T01:34:42.012Z,164.78
2023-04-25T01:35:27.584Z,164.78
2023-04-25T01:36:12.327Z,338.17
2023-04-25T01:36:57.776Z,336.17
2023-04-25T01:37:42.447Z,132.67
2023-04-25T01:38:27.607Z,350.14
2023-04-25T01:39:12.663Z,338.17
2023-04-25T01:39:57.816Z,354.13
2023-04-25T01:40:43.125Z,349.14
2023-04-25T01:41:27.833Z,346.15
2023-04-25T01:42:12.781Z,351.13
2023-04-25T01:42:57.743Z,350.82
2023-04-25T01:43:42.806Z,351.82
2023-04-25T01:44:27.997Z,341.85
2023-04-25T01:45:13.008Z,350.82
2023-04-25T01:45:58.123Z,353.62
2023-04-25T01:46:42.919Z,352.82
2023-04-25T01:47:29.591Z,348.83
2023-04-25T01:48:13.444Z,351.82
2023-04-25T01:48:58.288Z,167.25
2023-04-25T01:49:43.969Z,345.84
2023-04-25T01:50:28.205Z,341.85
2023-04-25T01:51:14.090Z,348.83
2023-04-25T01:51:58.660Z,355.81
2023-04-25T01:52:43.583Z,351.82
2023-04-25T01:53:28.209Z,342.85
2023-04-25T01:54:13.908Z,355.81
2023-04-25T01:54:58.620Z,337.87
2023-04-25T01:55:43.901Z,346.84
2023-04-25T01:56:28.647Z,348.43
2023-04-25T01:57:14.103Z,348.83
2023-04-25T01:57:58.970Z,339.86
2023-04-25T01:58:44.331Z,347.83
2023-04-25T01:59:29.471Z,344.84
2023-04-25T02:00:13.935Z,338.86
2023-04-25T02:00:59.318Z,341.85
2023-04-25T02:01:44.325Z,342.85
2023-04-25T02:02:29.609Z,345.84
2023-04-25T02:03:14.533Z,347.44
2023-04-25T02:03:59.571Z,339.86
2023-04-25T02:04:44.691Z,337.48
2023-04-25T02:05:30.821Z,336.87
2023-04-25T02:06:14.485Z,345.84
2023-04-25T02:06:59.555Z,344.45
2023-04-25T02:07:44.815Z,349.83
2023-04-25T02:08:29.742Z,347.83
2023-04-25T02:09:14.509Z,344.84
2023-04-25T02:09:59.788Z,349.83
2023-04-25T02:10:44.769Z,352.82
2023-04-25T02:11:29.801Z,342.85
2023-04-25T02:12:15.024Z,351.82
2023-04-25T02:13:00.002Z,350.82
2023-04-25T02:13:45.459Z,353.81
2023-04-25T02:14:29.811Z,342.85
2023-04-25T02:15:15.252Z,360.79
2023-04-25T02:16:00.331Z,356.80
2023-04-25T02:16:45.180Z,354.81
2023-04-25T02:17:30.043Z,353.81
2023-04-25T02:18:15.213Z,359.79
2023-04-25T02:19:00.761Z,352.82
2023-04-25T02:19:45.932Z,354.81
2023-04-25T02:20:30.684Z,345.84
2023-04-25T02:21:15.566Z,355.81
2023-04-25T02:22:00.483Z,347.83
2023-04-25T02:22:45.564Z,348.83
2023-04-25T02:23:31.426Z,352.82
2023-04-25T02:24:15.743Z,353.81
2023-04-25T02:25:01.015Z,352.82
2023-04-25T02:25:45.854Z,359.79
2023-04-25T02:26:31.124Z,354.81
2023-04-25T02:27:16.183Z,363.78
2023-04-25T02:28:01.146Z,352.82
2023-04-25T02:28:45.969Z,352.82
2023-04-25T02:29:31.181Z,356.40
2023-04-25T02:30:16.392Z,352.82
2023-04-25T02:31:01.007Z,361.38
2023-04-25T02:31:46.644Z,350.82
2023-04-25T02:32:31.281Z,348.83
2023-04-25T02:33:16.733Z,350.82
2023-04-25T02:34:01.475Z,349.83
2023-04-25T02:34:46.550Z,355.81
2023-04-25T02:35:31.487Z,360.79
2023-04-25T02:36:16.760Z,355.81
2023-04-25T02:37:01.717Z,342.85
2023-04-25T02:37:46.760Z,356.80
2023-04-25T02:38:31.815Z,351.13
2023-04-25T02:39:17.036Z,347.14
2023-04-25T02:40:01.835Z,347.65
2023-04-25T02:40:47.055Z,352.13
2023-04-25T02:41:32.045Z,353.13
2023-04-25T02:42:17.354Z,352.63
2023-04-25T02:43:02.170Z,351.13
2023-04-25T02:43:46.817Z,353.13
2023-04-25T02:44:32.278Z,359.11
2023-04-25T02:45:17.503Z,347.14
2023-04-25T02:46:02.637Z,351.13
2023-04-25T02:46:47.468Z,348.64
2023-04-25T02:47:32.725Z,346.84
2023-04-25T02:48:17.455Z,339.86
2023-04-25T02:49:02.519Z,342.85
2023-04-25T02:49:47.375Z,341.85
2023-04-25T02:50:32.611Z,340.86
2023-04-25T02:51:17.702Z,343.85
2023-04-25T02:52:02.451Z,340.47
2023-04-25T02:52:47.473Z,339.86
2023-04-25T02:53:32.574Z,344.84
2023-04-25T02:54:18.042Z,350.82
2023-04-25T02:55:03.217Z,347.44
2023-04-25T02:55:47.811Z,351.82
2023-04-25T02:56:33.155Z,354.41
2023-04-25T02:57:18.342Z,347.83
2023-04-25T02:58:02.913Z,350.82
2023-04-25T02:58:48.163Z,351.82
2023-04-25T02:59:33.025Z,353.81
2023-04-25T03:00:18.262Z,352.42
2023-04-25T03:01:03.520Z,350.82
2023-04-25T03:01:48.165Z,349.43
2023-04-25T03:02:33.308Z,354.81
2023-04-25T03:03:18.828Z,347.83
2023-04-25T03:04:03.550Z,353.81
2023-04-25T03:04:48.760Z,342.85
2023-04-25T03:05:33.742Z,353.81
2023-04-25T03:06:18.923Z,357.12
2023-04-25T03:07:03.816Z,344.15
2023-04-25T03:07:48.994Z,348.14
2023-04-25T03:08:33.707Z,342.16
2023-04-25T03:09:19.338Z,340.16
2023-04-25T03:10:03.893Z,346.15
2023-04-25T03:10:48.725Z,347.14
2023-04-25T03:11:35.022Z,342.28
2023-04-25T03:12:19.190Z,354.81
2023-04-25T03:13:04.107Z,356.25
2023-04-25T03:13:50.075Z,346.27
2023-04-25T03:14:34.234Z,354.25
2023-04-25T03:15:19.598Z,345.27
2023-04-25T03:16:04.619Z,347.27
2023-04-25T03:16:49.436Z,344.28
2023-04-25T03:17:34.577Z,351.26
2023-04-25T03:18:19.599Z,350.26
2023-04-25T03:19:04.515Z,348.27
2023-04-25T03:19:49.723Z,355.25
2023-04-25T03:20:34.748Z,346.27
2023-04-25T03:21:20.032Z,353.26
2023-04-25T03:22:04.698Z,342.28
2023-04-25T03:22:49.865Z,336.29
2023-04-25T03:23:34.944Z,339.29
2023-04-25T03:24:19.847Z,341.85
2023-04-25T03:25:05.253Z,343.28
2023-04-25T03:25:50.329Z,342.28
2023-04-25T03:26:35.032Z,348.27
2023-04-25T03:27:20.003Z,330.31
2023-04-25T03:28:05.217Z,138.71
2023-04-25T03:28:51.396Z,332.30
2023-04-25T03:29:35.148Z,127.73
2023-04-25T03:30:20.401Z,339.29
2023-04-25T03:31:05.410Z,325.33
2023-04-25T03:31:50.749Z,342.28
2023-04-25T03:32:35.217Z,335.29
2023-04-25T03:33:20.772Z,342.28
2023-04-25T03:34:06.629Z,346.27
2023-04-25T03:34:50.693Z,337.17
2023-04-25T03:35:35.393Z,341.16
2023-04-25T03:36:21.265Z,340.16
2023-04-25T03:37:05.866Z,339.68
2023-04-25T03:37:50.861Z,348.14
2023-04-25T03:38:36.016Z,348.14
2023-04-25T03:39:21.091Z,347.14
2023-04-25T03:40:06.355Z,337.17
2023-04-25T03:40:51.101Z,340.16
2023-04-25T03:41:36.255Z,341.16
2023-04-25T03:42:21.610Z,335.17
2023-04-25T03:43:06.095Z,330.19
2023-04-25T03:43:51.608Z,330.19
2023-04-25T03:44:36.489Z,335.17
2023-04-25T03:45:22.563Z,332.18
2023-04-25T03:46:06.053Z,123.69
2023-04-25T03:46:51.032Z,333.18
2023-04-25T03:47:36.728Z,336.17
2023-04-25T03:48:21.513Z,339.16
2023-04-25T03:49:06.613Z,351.13
2023-04-25T03:49:51.565Z,349.14
2023-04-25T03:50:36.618Z,354.13
2023-04-25T03:51:21.374Z,339.16
2023-04-25T03:52:06.636Z,349.14
2023-04-25T03:52:51.972Z,343.15
2023-04-25T03:53:37.085Z,365.10
2023-04-25T03:54:21.702Z,344.84
2023-04-25T03:55:07.692Z,350.14
2023-04-25T03:55:51.949Z,353.13
2023-04-25T03:56:37.732Z,346.84
2023-04-25T03:57:22.361Z,349.83
2023-04-25T03:58:07.399Z,346.84
2023-04-25T03:58:52.253Z,356.80
2023-04-25T03:59:37.250Z,341.85
2023-04-25T04:00:22.474Z,349.83
2023-04-25T04:01:07.311Z,355.81
2023-04-25T04:01:52.386Z,342.85
2023-04-25T04:02:37.592Z,347.83
2023-04-25T04:03:23.155Z,347.83
2023-04-25T04:04:07.900Z,350.82
2023-04-25T04:04:52.858Z,341.47
2023-04-25T04:05:37.724Z,339.86
2023-04-25T04:06:22.814Z,355.81
2023-04-25T04:07:07.568Z,351.63
2023-04-25T04:07:52.505Z,343.85
2023-04-25T04:08:37.493Z,347.83
2023-04-25T04:09:22.727Z,353.81
2023-04-25T04:10:07.588Z,343.85
2023-04-25T04:10:52.627Z,352.82
2023-04-25T04:11:37.790Z,347.44
2023-04-25T04:12:23.068Z,344.84
2023-04-25T04:13:07.633Z,341.85
2023-04-25T04:13:53.618Z,334.88
2023-04-25T04:14:38.017Z,337.87
2023-04-25T04:15:23.587Z,339.86
2023-04-25T04:16:08.983Z,342.85
2023-04-25T04:16:53.500Z,333.50
2023-04-25T04:17:38.301Z,336.87
2023-04-25T04:18:23.805Z,343.85
2023-04-25T04:19:08.627Z,335.87
2023-04-25T04:19:53.414Z,332.88
2023-04-25T04:20:38.860Z,332.88
2023-04-25T04:21:23.724Z,336.69
2023-04-25T04:22:08.593Z,335.69
2023-04-25T04:22:53.641Z,333.70
2023-04-25T04:23:39.523Z,337.69
2023-04-25T04:24:24.162Z,336.69
2023-04-25T04:25:08.821Z,341.67
2023-04-25T04:25:53.785Z,336.69
2023-04-25T04:26:38.834Z,342.67
2023-04-25T04:27:23.877Z,355.62
2023-04-25T04:28:09.607Z,352.63
2023-04-25T04:28:54.107Z,349.64
2023-04-25T04:29:39.053Z,349.64
2023-04-25T04:30:24.154Z,335.69
2023-04-25T04:31:09.154Z,342.67
2023-04-25T04:31:54.189Z,347.65
2023-04-25T04:32:39.258Z,347.65
2023-04-25T04:33:24.473Z,343.85
2023-04-25T04:34:09.273Z,325.91
2023-04-25T04:34:54.343Z,342.85
2023-04-25T04:35:39.724Z,343.85
2023-04-25T04:36:24.520Z,341.67
2023-04-25T04:37:09.835Z,349.64
2023-04-25T04:37:54.723Z,343.66
2023-04-25T04:38:40.709Z,342.67
2023-04-25T04:39:24.985Z,338.86
2023-04-25T04:40:09.527Z,343.85
2023-04-25T04:40:54.863Z,340.16
2023-04-25T04:41:39.863Z,343.15
2023-04-25T04:42:25.293Z,349.14
2023-04-25T04:43:09.953Z,351.13
2023-04-25T04:43:55.014Z,366.10
2023-04-25T04:44:40.136Z,350.82
2023-04-25T04:45:25.330Z,347.83
2023-04-25T04:46:09.894Z,285.16
2023-04-25T04:46:55.565Z,372.55
2023-04-25T04:47:40.016Z,368.76
2023-04-25T04:48:25.052Z,378.73
2023-04-25T04:49:10.663Z,363.78
2023-04-25T04:49:55.074Z,364.78
2023-04-25T04:50:40.228Z,366.77
2023-04-25T04:51:25.469Z,367.77
2023-04-25T04:52:10.256Z,354.41
2023-04-25T04:52:55.496Z,356.80
2023-04-25T04:53:40.434Z,367.77
2023-04-25T04:54:25.712Z,369.56
2023-04-25T04:55:10.773Z,359.60
2023-04-25T04:55:55.583Z,350.64
2023-04-25T04:56:40.909Z,361.59
2023-04-25T04:57:25.817Z,362.59
2023-04-25T04:58:11.092Z,376.54
2023-04-25T04:58:55.534Z,376.54
2023-04-25T04:59:40.940Z,351.63
2023-04-25T05:00:27.176Z,357.61
2023-04-25T05:01:11.195Z,355.62
2023-04-25T05:01:55.753Z,359.60
2023-04-25T05:02:41.239Z,354.81
2023-04-25T05:03:26.015Z,342.85
2023-04-25T05:04:11.213Z,355.81
2023-04-25T05:04:56.443Z,355.81
2023-04-25T05:05:41.450Z,348.83
2023-04-25T05:06:27.023Z,352.82
2023-04-25T05:07:12.184Z,343.85
2023-04-25T05:07:57.324Z,352.82
2023-04-25T05:08:41.471Z,347.83
2023-04-25T05:09:26.586Z,351.42
2023-04-25T05:10:11.670Z,358.80
2023-04-25T05:10:57.097Z,359.79
2023-04-25T05:11:41.920Z,361.79
2023-04-25T05:12:26.757Z,359.79
2023-04-25T05:13:11.816Z,366.35
2023-04-25T05:13:56.761Z,368.76
2023-04-25T05:14:42.490Z,369.34
2023-04-25T05:15:26.767Z,361.79
2023-04-25T05:16:11.631Z,365.77
2023-04-25T05:16:57.084Z,362.78
2023-04-25T05:17:42.193Z,355.81
2023-04-25T05:18:27.801Z,357.39
2023-04-25T05:19:11.882Z,355.81
2023-04-25T05:19:56.946Z,354.41
2023-04-25T05:20:42.192Z,364.78
2023-04-25T05:21:27.225Z,370.76
2023-04-25T05:22:12.379Z,366.77
2023-04-25T05:22:57.229Z,377.73
2023-04-25T05:23:42.306Z,366.35
2023-04-25T05:24:27.511Z,355.62
2023-04-25T05:25:12.428Z,357.61
2023-04-25T05:25:57.694Z,360.60
2023-04-25T05:26:43.353Z,362.13
2023-04-25T05:27:27.274Z,366.57
2023-04-25T05:28:12.626Z,356.61
2023-04-25T05:28:57.474Z,364.58
2023-04-25T05:29:42.434Z,356.61
2023-04-25T05:30:27.688Z,354.62
2023-04-25T05:31:13.159Z,369.56
2023-04-25T05:31:57.416Z,371.08
2023-04-25T05:32:42.789Z,373.55
2023-04-25T05:33:27.812Z,373.55
2023-04-25T05:34:12.776Z,371.55
2023-04-25T05:34:57.564Z,360.14
2023-04-25T05:35:42.965Z,368.57
2023-04-25T05:36:28.240Z,366.35
2023-04-25T05:37:13.290Z,365.58
2023-04-25T05:37:57.844Z,368.57
2023-04-25T05:38:43.341Z,358.80
2023-04-25T05:39:28.473Z,324.42
2023-04-25T05:40:13.443Z,383.71
2023-04-25T05:40:58.276Z,382.72
2023-04-25T05:41:45.350Z,396.67
2023-04-25T05:42:28.396Z,351.42
2023-04-25T05:43:13.351Z,386.70
2023-04-25T05:43:59.644Z,377.73
2023-04-25T05:44:43.660Z,383.71
2023-04-25T05:45:28.917Z,379.73
2023-04-25T05:46:13.728Z,393.68
2023-04-25T05:46:59.033Z,393.68
2023-04-25T05:47:44.205Z,390.69
2023-04-25T05:48:28.939Z,397.67
2023-04-25T05:49:14.091Z,398.66
2023-04-25T05:49:58.942Z,402.65
2023-04-25T05:50:44.522Z,392.68
2023-04-25T05:51:29.062Z,384.71
2023-04-25T05:52:14.566Z,389.98
2023-04-25T05:52:59.377Z,397.45
2023-04-25T05:53:44.344Z,397.45
2023-04-25T05:54:29.387Z,390.48
2023-04-25T05:55:14.580Z,386.50
2023-04-25T05:55:59.475Z,377.53
2023-04-25T05:56:44.383Z,378.53
2023-04-25T05:57:30.085Z,378.53
2023-04-25T05:58:14.689Z,403.43
2023-04-25T05:58:59.635Z,394.96
2023-04-25T05:59:44.722Z,399.45
2023-04-25T06:00:29.537Z,393.47
2023-04-25T06:01:14.699Z,403.43
2023-04-25T06:02:00.032Z,381.52
2023-04-25T06:02:45.029Z,373.55
2023-04-25T06:03:58.062Z,302.23
2023-04-25T06:04:15.219Z,401.92
2023-04-25T06:05:00.267Z,400.44
2023-04-25T06:05:58.621Z,396.95
2023-04-25T06:06:29.595Z,387.26
2023-04-25T06:07:24.304Z,387.26
2023-04-25T06:08:00.204Z,367.35
2023-04-25T06:08:45.594Z,369.34
2023-04-25T06:09:30.324Z,370.34
2023-04-25T06:10:16.039Z,377.31
2023-04-25T06:11:00.907Z,375.06
2023-04-25T06:11:45.388Z,378.53
2023-04-25T06:12:30.900Z,367.57
2023-04-25T06:13:16.248Z,371.55
2023-04-25T06:14:00.664Z,373.55
2023-04-25T06:14:46.219Z,370.56
2023-04-25T06:15:31.077Z,375.54
2023-04-25T06:16:16.093Z,367.35
2023-04-25T06:17:01.124Z,381.29
2023-04-25T06:17:46.062Z,379.30
2023-04-25T06:18:30.994Z,379.30
2023-04-25T06:19:16.171Z,376.31
2023-04-25T06:20:01.788Z,380.29
2023-04-25T06:20:46.675Z,376.31
2023-04-25T06:21:31.233Z,351.91
2023-04-25T06:22:16.244Z,368.35
2023-04-25T06:23:01.505Z,370.34
2023-04-25T06:23:46.576Z,378.30
2023-04-25T06:24:32.063Z,372.33
2023-04-25T06:25:17.136Z,374.32
2023-04-25T06:26:01.288Z,362.37
2023-04-25T06:26:48.351Z,278.08
2023-04-25T06:27:31.672Z,344.45
2023-04-25T06:28:17.084Z,361.38
2023-04-25T06:29:01.899Z,368.35
2023-04-25T06:29:46.939Z,372.33
2023-04-25T06:30:31.800Z,372.33
2023-04-25T06:31:17.087Z,374.32
2023-04-25T06:32:01.602Z,369.34
2023-04-25T06:32:47.117Z,372.33
2023-04-25T06:33:32.161Z,371.33
2023-04-25T06:34:17.026Z,368.35
2023-04-25T06:35:01.930Z,374.32
2023-04-25T06:35:47.466Z,374.32
2023-04-25T06:36:32.570Z,370.34
2023-04-25T06:37:17.259Z,370.34
2023-04-25T06:38:02.357Z,370.34
2023-04-25T06:38:47.567Z,371.33
2023-04-25T06:39:32.900Z,367.35
2023-04-25T06:40:17.468Z,372.33
2023-04-25T06:41:03.076Z,368.81
2023-04-25T06:41:47.745Z,368.35
2023-04-25T06:42:32.597Z,375.31
2023-04-25T06:43:18.062Z,366.35
2023-04-25T06:44:02.830Z,157.29
2023-04-25T06:44:47.715Z,370.34
2023-04-25T06:45:33.528Z,370.34
2023-04-25T06:46:18.135Z,367.35
2023-04-25T06:47:02.843Z,363.37
2023-04-25T06:47:47.809Z,372.33
2023-04-25T06:48:32.787Z,362.37
2023-04-25T06:49:18.176Z,366.35
2023-04-25T06:50:03.089Z,365.83
2023-04-25T06:50:48.008Z,372.33
2023-04-25T06:51:33.283Z,370.34
2023-04-25T06:52:18.888Z,363.37
2023-04-25T06:53:03.197Z,375.31
2023-04-25T06:53:48.470Z,364.36
2023-04-25T06:54:33.792Z,363.37
2023-04-25T06:55:20.286Z,360.14
2023-04-25T06:56:03.613Z,367.57
2023-04-25T06:56:48.800Z,364.58
2023-04-25T06:57:33.516Z,366.11
2023-04-25T06:58:19.061Z,362.59
2023-04-25T06:59:03.636Z,358.61
2023-04-25T06:59:48.810Z,362.59
2023-04-25T07:00:34.254Z,355.62
2023-04-25T07:01:18.782Z,361.59
2023-04-25T07:02:03.754Z,362.59
2023-04-25T07:02:49.097Z,362.59
2023-04-25T07:03:33.986Z,357.61
2023-04-25T07:04:19.897Z,364.58
2023-04-25T07:05:03.975Z,369.56
2023-04-25T07:05:49.125Z,364.58
2023-04-25T07:06:34.204Z,363.59
2023-04-25T07:07:19.063Z,360.60
2023-04-25T07:08:04.128Z,355.62
2023-04-25T07:08:49.495Z,360.60
2023-04-25T07:09:34.890Z,365.58
2023-04-25T07:10:19.580Z,358.61
2023-04-25T07:11:04.577Z,354.62
2023-04-25T07:11:49.478Z,359.60
2023-04-25T07:12:34.761Z,355.62
2023-04-25T07:13:19.991Z,359.60
2023-04-25T07:14:05.506Z,359.60
2023-04-25T07:14:49.738Z,360.60
2023-04-25T07:15:34.774Z,360.60
2023-04-25T07:16:20.091Z,351.63
2023-04-25T07:17:04.684Z,350.64
2023-04-25T07:17:49.763Z,364.58
2023-04-25T07:18:35.022Z,366.57
2023-04-25T07:19:20.956Z,354.62
2023-04-25T07:20:05.161Z,371.55
2023-04-25T07:20:50.065Z,371.55
2023-04-25T07:21:35.264Z,364.58
2023-04-25T07:22:20.298Z,361.59
2023-04-25T07:23:05.763Z,360.60
2023-04-25T07:23:50.191Z,368.57
2023-04-25T07:24:36.588Z,368.57
2023-04-25T07:25:20.820Z,364.58
2023-04-25T07:26:05.473Z,358.61
2023-04-25T07:26:50.802Z,361.59
2023-04-25T07:27:35.677Z,357.61
2023-04-25T07:28:21.309Z,350.64
2023-04-25T07:29:06.189Z,367.57
2023-04-25T07:29:50.443Z,363.59
2023-04-25T07:30:35.700Z,360.60
2023-04-25T07:31:20.995Z,378.53
2023-04-25T07:32:05.927Z,367.57
2023-04-25T07:32:50.778Z,370.56
2023-04-25T07:33:35.824Z,371.55
2023-04-25T07:34:21.763Z,374.54
2023-04-25T07:35:06.301Z,363.59
2023-04-25T07:35:51.314Z,363.59
2023-04-25T07:36:35.852Z,352.63
2023-04-25T07:37:21.203Z,352.63
2023-04-25T07:38:06.055Z,377.53
2023-04-25T07:38:52.288Z,364.58
2023-04-25T07:39:36.271Z,364.58
2023-04-25T07:40:21.326Z,362.59
2023-04-25T07:41:06.288Z,357.61
2023-04-25T07:41:53.064Z,361.59
2023-04-25T07:42:36.467Z,361.59
2023-04-25T07:43:21.846Z,359.60
2023-04-25T07:44:06.426Z,353.62
2023-04-25T07:44:51.622Z,357.61
2023-04-25T07:45:37.084Z,366.35
2023-04-25T07:46:21.766Z,361.85
2023-04-25T07:47:06.841Z,361.38
2023-04-25T07:47:51.820Z,363.37
2023-04-25T07:48:37.062Z,366.35
2023-04-25T07:49:22.158Z,362.59
2023-04-25T07:50:07.474Z,364.58
2023-04-25T07:50:51.742Z,366.35
2023-04-25T07:51:36.997Z,148.12
2023-04-25T07:52:22.518Z,358.39
2023-04-25T07:53:07.161Z,371.33
2023-04-25T07:53:51.964Z,374.78
2023-04-25T07:54:37.282Z,371.33
2023-04-25T07:55:22.255Z,369.34
2023-04-25T07:56:07.964Z,358.39
2023-04-25T07:56:53.639Z,359.39
2023-04-25T07:57:37.416Z,356.40
2023-04-25T07:58:22.200Z,350.43
2023-04-25T07:59:07.679Z,145.35
2023-04-25T07:59:52.386Z,358.39
2023-04-25T08:00:37.053Z,360.38
2023-04-25T08:01:22.668Z,355.40
2023-04-25T08:02:07.478Z,351.42
2023-04-25T08:02:52.594Z,357.88
2023-04-25T08:03:37.707Z,357.39
2023-04-25T08:04:23.094Z,360.38
2023-04-25T08:05:08.824Z,359.39
2023-04-25T08:05:53.237Z,361.38
2023-04-25T08:06:37.963Z,359.39
2023-04-25T08:07:22.961Z,360.38
2023-04-25T08:08:08.343Z,360.38
2023-04-25T08:08:53.099Z,361.38
2023-04-25T08:09:38.313Z,363.37
2023-04-25T08:10:23.010Z,370.34
2023-04-25T08:11:07.888Z,360.38
2023-04-25T08:11:52.784Z,361.38
2023-04-25T08:12:37.975Z,357.39
2023-04-25T08:13:24.036Z,147.34
2023-04-25T08:14:08.683Z,357.39
2023-04-25T08:14:53.452Z,364.36
2023-04-25T08:15:38.119Z,353.41
2023-04-25T08:16:23.691Z,351.42
2023-04-25T08:17:08.310Z,356.40
2023-04-25T08:17:53.283Z,356.40
2023-04-25T08:18:38.692Z,364.36
2023-04-25T08:19:23.236Z,366.35
2023-04-25T08:20:08.466Z,352.42
2023-04-25T08:20:53.746Z,356.40
2023-04-25T08:21:38.322Z,356.40
2023-04-25T08:22:23.718Z,358.39
2023-04-25T08:23:09.144Z,348.20
2023-04-25T08:23:53.378Z,354.62
2023-04-25T08:24:39.475Z,348.64
2023-04-25T08:25:23.409Z,356.16
2023-04-25T08:26:09.372Z,351.63
2023-04-25T08:26:53.718Z,357.39
2023-04-25T08:27:38.783Z,352.42
2023-04-25T08:28:24.244Z,354.41
2023-04-25T08:29:08.874Z,346.44
2023-04-25T08:29:53.840Z,349.43
2023-04-25T08:30:38.991Z,349.92
2023-04-25T08:31:24.598Z,355.40
2023-04-25T08:32:09.171Z,353.41
2023-04-25T08:32:54.768Z,356.40
2023-04-25T08:33:39.161Z,363.37
2023-04-25T08:34:24.298Z,349.43
2023-04-25T08:35:10.063Z,351.42
2023-04-25T08:35:54.480Z,355.40
2023-04-25T08:36:40.378Z,350.43
2023-04-25T08:37:24.637Z,347.44
2023-04-25T08:38:10.025Z,359.39
2023-04-25T08:38:55.541Z,346.44
2023-04-25T08:39:39.518Z,335.21
2023-04-25T08:40:24.820Z,347.44
2023-04-25T08:41:09.811Z,337.00
2023-04-25T08:41:54.668Z,336.26
2023-04-25T08:42:40.178Z,159.86
2023-04-25T08:43:24.996Z,250.90
2023-04-25T08:44:10.084Z,366.11
2023-04-25T08:44:55.097Z,364.12
2023-04-25T08:45:40.246Z,355.16
2023-04-25T08:46:25.270Z,358.15
2023-04-25T08:47:10.430Z,360.14
2023-04-25T08:47:55.444Z,358.23
2023-04-25T08:48:40.233Z,367.35
2023-04-25T08:49:25.194Z,357.88
2023-04-25T08:50:10.499Z,354.41
2023-04-25T08:50:55.114Z,365.36
2023-04-25T08:51:40.059Z,357.39
2023-04-25T08:52:25.702Z,367.10
2023-04-25T08:53:10.528Z,353.17
2023-04-25T08:53:57.973Z,364.12
2023-04-25T08:54:41.691Z,360.14
2023-04-25T08:55:26.482Z,367.10
2023-04-25T08:56:11.182Z,357.24
2023-04-25T08:56:55.554Z,352.18
2023-04-25T08:57:41.548Z,345.22
2023-04-25T08:58:25.767Z,355.16
2023-04-25T08:59:11.467Z,361.13
2023-04-25T08:59:56.063Z,358.15
2023-04-25T09:00:41.382Z,358.15
2023-04-25T09:01:26.248Z,369.09
2023-04-25T09:02:11.702Z,359.14
2023-04-25T09:02:56.415Z,370.09
2023-04-25T09:03:41.320Z,359.22
2023-04-25T09:04:26.779Z,370.09
2023-04-25T09:05:11.488Z,368.15
2023-04-25T09:05:56.678Z,377.05
2023-04-25T09:06:41.605Z,377.05
2023-04-25T09:07:26.380Z,365.11
2023-04-25T09:08:11.670Z,372.08
2023-04-25T09:08:56.876Z,368.10
2023-04-25T09:09:41.943Z,369.09
2023-04-25T09:10:26.607Z,370.09
2023-04-25T09:11:11.720Z,366.11
2023-04-25T09:11:57.119Z,366.11
2023-04-25T09:12:42.209Z,377.05
2023-04-25T09:13:27.367Z,372.08
2023-04-25T09:14:11.879Z,372.08
2023-04-25T09:14:56.609Z,352.18
2023-04-25T09:15:42.271Z,366.11
2023-04-25T09:16:27.119Z,362.13
2023-04-25T09:17:12.615Z,362.13
2023-04-25T09:17:57.792Z,360.14
2023-04-25T09:18:48.386Z,362.13
2023-04-25T09:19:38.866Z,371.08
2023-04-25T09:20:12.312Z,374.07
2023-04-25T09:21:01.054Z,157.19
2023-04-25T09:21:42.661Z,360.14
2023-04-25T09:22:28.019Z,367.10
2023-04-25T09:23:12.521Z,364.12